Tiempo atmosférico en la estación meteorológica de Lekeitio, Bizkaia (12 m.)



Fecha
DESCASC
Temp. máxima en grados centígrados (hora)
DESCASC
Temp. mínima en grados centígrados (hora)
DESCASC
Temp. media en grados centígrados
DESCASC
Racha de viento máxima en m/sg (hora)
DESCASC
Velocidad máxima media en intervalos de 10 minutos(hora)
DESCASC
Precipitaciones diarias en mm
DESCASC
Precipitaciones de 00:00 a 06:00 en mm
DESCASC
Precipitaciones de 06:00 a 12:00 en mm
DESCASC
Precipitaciones de 12:00 a 18:00 en mm
DESCASC
Precipitaciones de 18:00 a 24:00 en mm
DESCASC
13-10-2019 26.7 (14:40) 16.3 (23:59) 21.5 20 (18:40) 10 (18:50) -- -- -- -- --
12-10-2019 27.3 (17:30) 15.5 (07:20) 21.4 13.33 (21:30) 8.33 (18:30) -- -- -- -- --
11-10-2019 26 (14:40) 12 (04:20) 19 9.17 (21:30) 5.83 (21:40) -- -- -- -- --
10-10-2019 19.7 (18:10) 11.5 (00:00) 15.6 6.67 (02:20) 5 (23:30) -- -- -- -- --
09-10-2019 16.8 (17:40) 12.8 (00:00) 14.8 19.72 (16:00) 11.94 (16:30) -- -- -- -- --
08-10-2019 22.1 (16:00) 12.5 (00:00) 17.3 19.72 (18:30) 12.22 (18:50) -- -- -- -- --
07-10-2019 20.2 (16:00) 11.5 (00:00) 15.9 5.83 (05:50) 3.61 (19:00) -- -- -- -- --
06-10-2019 17.3 (12:00) 13.9 (00:00) 15.6 12.5 (12:50) 8.89 (19:50) -- -- -- -- --
05-10-2019 17.9 (17:50) 12.3 (00:00) 15.1 6.39 (00:40) 3.61 (00:50) -- -- -- -- --
04-10-2019 17.5 (03:20) 13.6 (00:00) 15.6 10.83 (10:50) 7.5 (12:50) -- -- -- -- --
03-10-2019 20.8 (18:10) 11.7 (00:00) 16.2 5.83 (07:50) 3.33 (08:50) -- -- -- -- --
02-10-2019 18.4 (00:30) 14.4 (00:00) 16.4 21.39 (05:00) 15.28 (05:00) -- -- -- -- --
01-10-2019 20.4 (11:40) 15.7 (00:00) 18 20 (19:20) 14.44 (20:10) -- -- -- -- --
30-09-2019 23.9 (16:40) 16.6 (00:00) 20.3 9.72 (18:00) 4.17 (08:30) -- -- -- -- --
29-09-2019 25.1 (16:20) 13 (00:00) 19.1 6.39 (23:10) 4.72 (23:10) -- -- -- -- --
28-09-2019 21.4 (16:10) 15.2 (00:00) 18.3 8.33 (04:00) 6.39 (03:50) -- -- -- -- --
27-09-2019 21.4 (11:10) 14.4 (00:00) 17.9 13.89 (12:10) 11.67 (12:20) -- -- -- -- --
26-09-2019 20.5 (18:50) 14.6 (00:00) 17.6 7.22 (03:10) 4.72 (23:20) -- -- -- -- --
25-09-2019 19 (12:50) 16.5 (00:00) 17.8 14.72 (14:10) 11.39 (14:50) -- -- -- -- --
24-09-2019 23.9 (06:50) 16.8 (00:00) 20.3 19.72 (14:50) 13.61 (14:10) -- -- -- -- --
23-09-2019 21.7 (14:10) 14.6 (00:00) 18.2 6.67 (08:40) 4.44 (08:20) -- -- -- -- --
22-09-2019 24.9 (00:20) 10.1 (00:00) 17.5 19.72 (05:20) 12.5 (02:20) -- -- -- -- --
21-09-2019 28.2 (13:50) 21 (00:00) 24.6 19.44 (03:10) 9.17 (03:10) -- -- -- -- --
20-09-2019 30.7 (16:30) 14.8 (00:00) 22.8 19.72 (23:00) 8.06 (14:30) -- -- -- -- --
19-09-2019 21.1 (17:10) 14.9 (00:00) 18 9.72 (13:20) 7.5 (13:30) -- -- -- -- --
18-09-2019 20.5 (12:50) 16.5 (00:00) 18.5 10 (14:30) 7.5 (14:50) -- -- -- -- --
17-09-2019 22.8 (11:00) 16.1 (00:00) 19.4 6.94 (16:10) 5 (16:00) -- -- -- -- --
16-09-2019 23 (18:00) 16.9 (00:00) 19.9 6.11 (01:10) 4.17 (01:10) -- -- -- -- --

Gráficas

Temp. máximas Temp. mínimas Temp. medias Precipitaciones Rachas de viento máximas Velocidades máximas media en intervalos de 10 minutos

Datos horarios

Fecha y hora oficial Temperatura (ºC) Velocidad del viento (km/h) Dirección del viento Racha (km/h) Dirección de racha Precipitación (mm) Presión (hPa) Tendencia (hPa) Humedad (%)
2019-10-15 23:00:00 15.4 12 Sur 21 Sur -- 1009.6 -0.4 55
2019-10-15 22:00:00 15.9 10 Sur 22 Sur -- 1009.6 0 55
2019-10-15 21:00:00 15.8 7 Sur 16 Sur -- 1009.7 -0.3 55
2019-10-15 20:00:00 16.5 0 Calma 10 Sudeste -- 1010 -0.3 58
2019-10-15 19:00:00 17.1 6 Sudeste 10 Sudeste -- 1009.6 -0.8 66
2019-10-15 18:00:00 17.8 0 Calma 12 Noroeste -- 1010 -0.4 59
2019-10-15 17:00:00 17.6 9 Noroeste 21 Noroeste -- 1010.3 -0.4 57
2019-10-15 16:00:00 17.9 10 Noroeste 26 Noroeste -- 1010.4 -0.4 50
2019-10-15 15:00:00 17.3 12 Oeste 30 Oeste -- 1010.4 -0.6 49
2019-10-15 14:00:00 16.6 10 Oeste 29 Oeste -- 1010.7 0.2 50
2019-10-15 13:00:00 15.6 9 Oeste 32 Oeste -- 1010.8 0.9 53
2019-10-15 12:00:00 14.8 13 Oeste 48 Sudoeste -- 1011 1.6 54
2019-10-15 11:00:00 15 17 Sudoeste 41 Sudoeste -- 1010.5 1.7 53
2019-10-15 10:00:00 12.8 18 Sudoeste 38 Sudoeste -- 1009.9 1.6 63
2019-10-15 09:00:00 11.8 18 Sudoeste 41 Sudoeste -- 1009.4 1.4 71
2019-10-15 08:00:00 12 19 Sudoeste 38 Sudoeste -- 1008.8 1.6 67
2019-10-15 07:00:00 12.4 17 Sudoeste 39 Oeste -- 1008.3 0.8 64
2019-10-15 06:00:00 12.2 15 Sudoeste 46 Sudoeste -- 1008 0.7 69
2019-10-15 05:00:00 12.4 18 Sudoeste 45 Sudoeste -- 1007.2 0.2 66
2019-10-15 04:00:00 12.1 12 Sudoeste 46 Oeste -- 1007.5 1.3 69
2019-10-15 03:00:00 12.3 13 Oeste 45 Oeste -- 1007.3 1.3 71
2019-10-15 02:00:00 12.3 14 Sudoeste 43 Oeste -- 1007 1.2 75
2019-10-15 01:00:00 12.4 20 Sudoeste 48 Oeste -- 1006.2 1.4 77
2019-10-15 00:00:00 11.2 18 Sudoeste 41 Sudoeste -- 1006 2.1 91
2019-10-14 23:00:00 11.7 11 Oeste 35 Oeste -- 1005.8 3.4 92
2019-10-14 22:00:00 12.6 14 Oeste 41 Noroeste -- 1004.8 2.2 88
2019-10-14 21:00:00 13.6 25 Noroeste 45 Noroeste -- 1003.9 2.4 91
2019-10-14 20:00:00 13.5 10 Sur 31 Oeste -- 1002.4 1.2 92
2019-10-14 19:00:00 15.8 7 Oeste 14 Oeste -- 1002.6 1.7 91
2019-10-14 18:00:00 16.6 0 Calma 27 Noroeste -- 1001.5 1.4 88
2019-10-14 17:00:00 16.7 21 Noroeste 35 Noroeste -- 1001.2 1.2 89
2019-10-14 16:00:00 16.8 31 Noroeste 71 Noroeste -- 1000.9 1.6 87
2019-10-14 15:00:00 15.5 32 Noroeste 49 Noroeste -- 1000.1 0.9 91
2019-10-14 14:00:00 13.8 30 Noroeste 51 Noroeste -- 1000 0.7 95
2019-10-14 13:00:00 15 36 Noroeste 71 Noroeste -- 999.3 -0.1 95
2019-10-14 12:00:00 16.7 39 Noroeste 54 Noroeste -- 999.2 0.3 89
2019-10-14 11:00:00 16.4 35 Noroeste 72 Noroeste -- 999.3 1 91
2019-10-14 10:00:00 16.5 39 Noroeste 72 Noroeste -- 999.4 1.3 92
2019-10-14 09:00:00 16.7 37 Noroeste 62 Noroeste -- 998.9 0.9 92
2019-10-14 08:00:00 17.8 44 Noroeste 58 Noroeste -- 998.3 0 92
2019-10-14 07:00:00 21 10 Sudeste 29 Sudeste -- 998.1 -1.2 65
2019-10-14 06:00:00 20.9 22 Sudeste 32 Sudeste -- 998 -2.2 66
2019-10-14 05:00:00 20.6 20 Sudeste 25 Sudeste -- 998.3 -2.7 66
2019-10-14 04:00:00 20.7 19 Sudeste 25 Sur -- 999.3 -2.2 63
2019-10-14 03:00:00 20.6 16 Sudeste 20 Sudeste -- 1000.2 -2 62
2019-10-14 02:00:00 20.3 10 Este 17 Sudeste -- 1001 -1.9 68
2019-10-14 01:00:00 17.3 13 Sudeste 20 Sur -- 1001.5 -1.5 81
2019-10-14 00:00:00 16.3 5 Sur 12 Sudoeste -- 1002.2 -1.1 89
2019-10-13 23:00:00 17.8 3 Sudoeste 11 Sur -- 1002.9 -0.6 88
2019-10-13 22:00:00 18 3 Sudoeste 14 Oeste -- 1003 0.2 87
2019-10-13 21:00:00 19.3 0 Calma 14 Noroeste -- 1003.3 0.2 82
2019-10-13 20:00:00 19.6 11 Noroeste 37 Noroeste -- 1003.5 0.1 79
2019-10-13 19:00:00 20.6 27 Noroeste 72 Noroeste -- 1002.8 -0.7 74
2019-10-13 18:00:00 23.9 15 Oeste 24 Sudoeste -- 1003.1 -0.4 53
2019-10-13 17:00:00 23.4 15 Oeste 22 Noroeste -- 1003.4 -0.2 58
2019-10-13 16:00:00 24.7 3 Nordeste 9 Este -- 1003.5 0.1 58
2019-10-13 15:00:00 25.8 3 Este 30 Sur -- 1003.5 0.1 52
2019-10-13 14:00:00 26.2 12 Sur 42 Sur -- 1003.6 0 52
2019-10-13 13:00:00 25 26 Sur 56 Sur -- 1003.4 0.3 53
2019-10-13 12:00:00 23.9 22 Sur 50 Sudeste -- 1003.4 1.2 55
2019-10-13 11:00:00 22.7 17 Sudeste 31 Sur -- 1003.6 2.3 58
2019-10-13 10:00:00 22.7 7 Este 19 Este -- 1003.1 2.3 60
2019-10-13 09:00:00 21 6 Sudeste 29 Sudeste -- 1002.2 1.7 62
2019-10-13 08:00:00 21 16 Sudeste 24 Sur -- 1001.3 0.9 59
2019-10-13 07:00:00 20.9 14 Sudeste 24 Sudeste -- 1000.8 -0.1 59
2019-10-13 06:00:00 22.2 15 Sudeste 27 Sudeste -- 1000.5 -1.5 54
2019-10-13 05:00:00 22.3 17 Sudeste 33 Sudeste -- 1000.4 -1.6 55
2019-10-13 04:00:00 22.3 25 Sudeste 34 Sudeste -- 1000.9 -1 58
2019-10-13 03:00:00 22.7 17 Sudeste 31 Sudeste -- 1002 -0.6 58
2019-10-13 02:00:00 22.9 21 Sudeste 36 Sudeste -- 1002 -0.7 59
2019-10-13 01:00:00 23.4 21 Sudeste 39 Sur -- 1001.9 -1.4 59
2019-10-13 00:00:00 23.3 20 Sudeste 32 Sudeste -- 1002.6 0.1 60
2019-10-12 23:00:00 23.3 21 Sudeste 30 Sudeste -- 1002.7 0.4 56
2019-10-12 22:00:00 22.6 24 Sudeste 48 Oeste -- 1003.3 1.3 59
2019-10-12 21:00:00 24.2 21 Sur 40 Sudeste -- 1002.5 0.3 54
2019-10-12 20:00:00 -- 21 Sudeste 40 Sudeste -- 1002.3 -0.3 --
2019-10-12 19:00:00 26.1 25 Sudeste 46 Sudeste -- 1002 -0.7 48
2019-10-12 18:00:00 27.2 16 Sudeste 32 Sudeste -- 1002.2 -1.3 50
2019-10-12 17:00:00 26.5 18 Sudeste 30 Sudeste -- 1002.6 -1.6 52
2019-10-12 16:00:00 26.2 17 Sur 39 Sur -- 1002.7 -2.4 50
2019-10-12 15:00:00 25.6 24 Sur 67 Sur -- 1003.5 -1.8 50
2019-10-12 14:00:00 24.5 28 Sur 46 Sudeste -- 1004.2 -0.9 53
2019-10-12 13:00:00 24.1 22 Sur 39 Sur -- 1005.1 0.3 54
2019-10-12 12:00:00 23.3 18 Sur 66 Sudeste -- 1005.3 0.4 59
2019-10-12 11:00:00 22.7 20 Sur 41 Sudeste -- 1005.1 0.3 60
2019-10-12 10:00:00 22.1 19 Sudeste 38 Sudeste -- 1004.8 -0.3 63
2019-10-12 09:00:00 16.8 2 Oeste 13 Noroeste -- 1004.9 -0.1 94
2019-10-12 08:00:00 16.2 3 Sur 15 Noroeste -- 1004.8 -0.5 95
2019-10-12 07:00:00 16.2 11 Oeste 16 Noroeste -- 1005.1 -0.5 95
2019-10-12 06:00:00 16.4 4 Noroeste 11 Noroeste -- 1005 -1.1 95
2019-10-12 05:00:00 16.5 13 Noroeste 24 Noroeste -- 1005.3 -1 95
2019-10-12 04:00:00 16.6 17 Noroeste 21 Noroeste -- 1005.6 -1.2 94
2019-10-12 03:00:00 17 5 Noroeste 18 Sur -- 1006.1 -0.7 93
2019-10-12 02:00:00 17.1 10 Sur 15 Noroeste -- 1006.3 -0.4 92
2019-10-12 01:00:00 17.5 17 Noroeste 26 Noroeste -- 1006.8 0.6 91
2019-10-12 00:00:00 17.3 18 Noroeste 23 Oeste -- 1006.8 0.8 92
2019-10-11 23:00:00 17.1 15 Noroeste 26 Oeste -- 1006.7 0.6 94
2019-10-11 22:00:00 18.5 21 Noroeste 33 Noroeste -- 1006.2 -0.3 91
2019-10-11 21:00:00 19.6 8 Sur 20 Sudeste -- 1006 -1 79
2019-10-11 20:00:00 20.7 14 Sudeste 19 Sudeste -- 1006.1 -1.2 75
2019-10-11 19:00:00 21.1 13 Sudeste 18 Sudeste -- 1006.5 -1.4 73
2019-10-11 18:00:00 23.8 12 Sudeste 17 Sudeste -- 1007 -1.5 61
2019-10-11 17:00:00 24.5 10 Sudeste 15 Sudeste -- 1007.3 -2 58
2019-10-11 16:00:00 23.9 0 Calma 13 Nordeste -- 1007.9 -1.9 55
2019-10-11 15:00:00 23.6 3 Noroeste 27 Sur -- 1008.5 -1.4 54
2019-10-11 14:00:00 25.4 16 Sur 33 Sudoeste -- 1009.3 -0.9 47
2019-10-11 13:00:00 24.6 12 Sur 33 Sur -- 1009.8 -0.1 45
2019-10-11 12:00:00 23.3 15 Sur 30 Sur -- 1009.9 0.4 50
2019-10-11 11:00:00 18.5 4 Sudeste 15 Sudeste -- 1010.2 0.8 68
2019-10-11 10:00:00 17.2 0 Calma 6 Sudeste -- 1009.9 0.7 72
2019-10-11 09:00:00 15.8 0 Calma 10 Oeste -- 1009.5 0 78
2019-10-11 08:00:00 15.4 8 Oeste 13 Oeste -- 1009.4 -0.5 75
2019-10-11 07:00:00 14.3 2 Oeste 10 Oeste -- 1009.2 -1.5 83
2019-10-11 06:00:00 14.3 8 Oeste 14 Sur -- 1009.5 -2 90
2019-10-11 05:00:00 13.2 11 Sur 19 Sur -- 1009.9 -2.2 87
2019-10-11 04:00:00 12.5 10 Sur 16 Sur -- 1010.7 -2.1 92
2019-10-11 03:00:00 12.7 13 Sur 28 Sur -- 1011.5 -1.7 92
2019-10-11 02:00:00 13.2 12 Sur 17 Sudeste -- 1012.1 -1.4 92
2019-10-11 01:00:00 14.3 14 Sur 22 Sur -- 1012.8 -1.2 91
2019-10-11 00:00:00 14.7 17 Sur 24 Sur -- 1013.2 -1 90
2019-10-10 23:00:00 14.6 16 Sur 22 Sur -- 1013.5 -0.6 90
2019-10-10 22:00:00 14.7 13 Sur 19 Sur -- 1014 -0.5 89
2019-10-10 21:00:00 15.2 12 Sur 19 Sudeste -- 1014.2 -0.5 87
2019-10-10 20:00:00 16.4 9 Sudeste 19 Sudeste -- 1014.1 -1 81
2019-10-10 19:00:00 17.4 6 Sudeste 16 Sudeste -- 1014.5 -1.1 75
2019-10-10 18:00:00 19.4 2 Este 13 Este -- 1014.7 -1.3 69
2019-10-10 17:00:00 18.2 6 Nordeste 14 Norte -- 1015.1 -1.5 73
2019-10-10 16:00:00 17.5 8 Norte 12 Norte -- 1015.6 -1.4 70
2019-10-10 15:00:00 16.8 6 Norte 12 Norte -- 1016 -1.1 71
2019-10-10 14:00:00 17.1 4 Nordeste 14 Nordeste -- 1016.6 -0.7 71
2019-10-10 13:00:00 17.1 3 Nordeste 12 Nordeste -- 1017 0.1 72
2019-10-10 12:00:00 18 3 Sudeste 16 Sur -- 1017.1 0.8 67
2019-10-10 11:00:00 17 10 Sudeste 17 Sur -- 1017.3 1.3 76
2019-10-10 10:00:00 14.7 11 Sur 19 Sur -- 1016.9 1.2 83
2019-10-10 09:00:00 11.8 13 Sur 17 Sur -- 1016.3 0.4 91
2019-10-10 08:00:00 12 12 Sudoeste 19 Sudoeste -- 1016 0.1 90
2019-10-10 07:00:00 12 13 Sur 18 Sur -- 1015.7 -0.1 90
2019-10-10 06:00:00 13.8 10 Sudoeste 23 Sur -- 1015.9 -0.3 83
2019-10-10 05:00:00 14.1 15 Sur 23 Sudoeste -- 1015.9 0 82
2019-10-10 04:00:00 13.6 12 Sur 18 Sudoeste -- 1015.8 -0.6 84
2019-10-10 03:00:00 14.5 10 Sudoeste 24 Oeste -- 1016.2 -0.3 83
2019-10-10 02:00:00 14.3 13 Sur 21 Sudoeste -- 1015.9 -0.3 84
2019-10-10 01:00:00 14.3 9 Sudoeste 17 Sudoeste -- 1016.4 0.2 84
2019-10-10 00:00:00 14.1 10 Sudoeste 18 Sudoeste -- 1016.5 0.4 87
2019-10-09 23:00:00 14.9 10 Sudoeste 18 Sudoeste -- 1016.2 0.2 80
2019-10-09 22:00:00 14.7 10 Sudoeste 21 Sudoeste -- 1016.2 0.6 81
2019-10-09 21:00:00 14.9 9 Sudoeste 21 Oeste -- 1016.1 0.9 82
2019-10-09 20:00:00 15.5 9 Oeste 29 Norte -- 1016 1.3 80
2019-10-09 19:00:00 16.3 24 Noroeste 41 Noroeste -- 1015.6 1 79
2019-10-09 18:00:00 16.6 28 Noroeste 49 Noroeste -- 1015.2 -0.1 71
2019-10-09 17:00:00 16.3 38 Noroeste 53 Noroeste -- 1014.7 -0.8 75
2019-10-09 16:00:00 16.3 37 Noroeste 71 Noroeste -- 1014.6 -1.2 75
2019-10-09 15:00:00 15.8 15 Oeste 50 Noroeste -- 1015.3 -0.2 76
2019-10-09 14:00:00 15.1 9 Oeste 29 Noroeste -- 1015.5 0.3 84
2019-10-09 13:00:00 14.9 15 Oeste 39 Oeste -- 1015.8 1.2 82
2019-10-09 12:00:00 14.8 22 Noroeste 55 Noroeste -- 1015.5 1.3 88
2019-10-09 11:00:00 15.2 17 Oeste 31 Oeste -- 1015.2 1.3 82
2019-10-09 10:00:00 14.9 15 Oeste 33 Oeste -- 1014.6 1 80
2019-10-09 09:00:00 14.5 10 Oeste 31 Oeste -- 1014.2 0.9 83
2019-10-09 08:00:00 13.2 11 Sudoeste 31 Noroeste -- 1013.9 1.3 92
2019-10-09 07:00:00 13.7 9 Noroeste 21 Noroeste -- 1013.6 1.1 93
2019-10-09 06:00:00 14.4 9 Oeste 41 Noroeste -- 1013.3 0.7 87
2019-10-09 05:00:00 14.3 31 Noroeste 46 Noroeste -- 1012.6 -0.6 93
2019-10-09 04:00:00 14.6 8 Oeste 15 Oeste -- 1012.5 -0.8 91
2019-10-09 03:00:00 14.3 6 Sudoeste 25 Oeste -- 1012.6 -0.9 91
2019-10-09 02:00:00 14.5 9 Noroeste 17 Noroeste -- 1013.2 -0.6 92
2019-10-09 01:00:00 14.7 7 Oeste 19 Oeste -- 1013.3 -0.3 89
2019-10-09 00:00:00 13.8 13 Oeste 27 Oeste -- 1013.5 0.4 95
2019-10-08 23:00:00 14.3 18 Noroeste 31 Noroeste -- 1013.8 1.7 95
2019-10-08 22:00:00 14.8 15 Oeste 46 Noroeste -- 1013.6 2.5 95
2019-10-08 21:00:00 14.3 35 Noroeste 52 Noroeste -- 1013.1 2.3 96
2019-10-08 20:00:00 14.8 39 Noroeste 54 Noroeste -- 1012.1 1.4 96
2019-10-08 19:00:00 16.1 40 Noroeste 71 Noroeste -- 1011.1 0.6 96
2019-10-08 18:00:00 19.5 26 Noroeste 51 Noroeste -- 1010.8 0.4 86
2019-10-08 17:00:00 20.8 0 Calma 5 Este -- 1010.7 0.1 65
2019-10-08 16:00:00 21.6 5 Sudeste 10 Sudeste -- 1010.5 -0.3 62
2019-10-08 15:00:00 20 0 Calma 13 Norte -- 1010.4 -0.4 66
2019-10-08 14:00:00 18.5 6 Noroeste 21 Noroeste -- 1010.6 -0.1 79
2019-10-08 13:00:00 18.4 9 Noroeste 11 Noroeste -- 1010.8 0.3 72
2019-10-08 12:00:00 17.8 9 Noroeste 10 Noroeste -- 1010.8 0.3 54
2019-10-08 11:00:00 18.3 0 Calma 14 Sur -- 1010.7 0.2 53
2019-10-08 10:00:00 16.8 8 Sur 14 Sur -- 1010.5 -0.1 55
2019-10-08 09:00:00 14.9 11 Sur 16 Sur -- 1010.5 -0.4 56
2019-10-08 08:00:00 14.1 11 Sur 15 Sur -- 1010.5 -0.9 60
2019-10-08 07:00:00 13.2 8 Sudoeste 13 Sur -- 1010.6 -1.4 70
2019-10-08 06:00:00 13 8 Sudoeste 13 Sudoeste -- 1010.9 -1.9 72
2019-10-08 05:00:00 13.2 9 Sur 15 Sudoeste -- 1011.4 -1.5 79
2019-10-08 04:00:00 13.8 10 Sur 18 Sur -- 1012 -1 82
2019-10-08 03:00:00 13.1 9 Sur 15 Sur -- 1012.8 -0.4 88
2019-10-08 02:00:00 13.9 4 Oeste 13 Sur -- 1012.9 -0.3 88
2019-10-08 01:00:00 13.7 8 Sur 15 Sur -- 1013 -0.3 87
2019-10-08 00:00:00 13.9 8 Sudoeste 14 Sur -- 1013.2 -0.2 91
2019-10-07 23:00:00 14.7 10 Sur 15 Sur -- 1013.2 -0.2 89
2019-10-07 22:00:00 14.6 8 Sur 12 Sur -- 1013.3 -0.3 92
2019-10-07 21:00:00 15 8 Sur 14 Sur -- 1013.4 -0.4 90
2019-10-07 20:00:00 16 10 Sur 15 Sur -- 1013.4 -0.5 88
2019-10-07 19:00:00 17.2 13 Sudeste 17 Sudeste -- 1013.6 -0.9 84
2019-10-07 18:00:00 18.7 11 Sudeste 14 Sudeste -- 1013.8 -0.7 76
2019-10-07 17:00:00 19.1 8 Sudeste 17 Sudeste -- 1013.9 -0.9 72
2019-10-07 16:00:00 20 5 Sudeste 14 Sudeste -- 1014.5 -0.9 72
2019-10-07 15:00:00 19.2 3 Este 18 Sudeste -- 1014.5 -1 75
2019-10-07 14:00:00 18.5 5 Sudeste 17 Sudeste -- 1014.8 -0.6 76
2019-10-07 13:00:00 18.2 8 Sudeste 15 Sudeste -- 1015.4 0.7 78
2019-10-07 12:00:00 17.4 7 Sudeste 12 Sudeste -- 1015.5 0.9 73
2019-10-07 11:00:00 16 7 Sur 15 Sur -- 1015.4 0.9 82
2019-10-07 10:00:00 14.1 8 Sur 15 Sur -- 1014.7 0.4 90
2019-10-07 09:00:00 12.9 11 Sur 16 Sur -- 1014.6 0.6 91
2019-10-07 08:00:00 12.4 12 Sur 17 Sur -- 1014.5 0.3 93
2019-10-07 07:00:00 12 9 Sur 18 Sur -- 1014.3 -0.5 94
2019-10-07 06:00:00 12 7 Sudoeste 21 Sudoeste -- 1014 -1.6 93
2019-10-07 05:00:00 12.2 9 Sudoeste 15 Sur -- 1014.2 -1.5 92
2019-10-07 04:00:00 12.8 8 Sudoeste 13 Sudoeste -- 1014.8 -1.5 91
2019-10-07 03:00:00 13.9 7 Sudoeste 12 Sudoeste -- 1015.6 -1.1 87
2019-10-07 02:00:00 14.1 7 Sudoeste 12 Sudoeste -- 1015.7 -0.9 85
2019-10-07 01:00:00 14.2 6 Sudoeste 14 Oeste -- 1016.3 -0.1 84
2019-10-07 00:00:00 15.4 8 Oeste 19 Oeste -- 1016.7 0.5 78
2019-10-06 23:00:00 15.5 9 Oeste 19 Oeste -- 1016.6 0.7 79
2019-10-06 22:00:00 15.9 12 Oeste 25 Noroeste -- 1016.4 0.8 80
2019-10-06 21:00:00 15.8 13 Oeste 27 Oeste -- 1016.2 1 79
2019-10-06 20:00:00 16 23 Noroeste 39 Noroeste -- 1015.9 0.8 83
2019-10-06 19:00:00 15.9 11 Oeste 36 Noroeste -- 1015.6 0.3 87
2019-10-06 18:00:00 16 19 Noroeste 32 Noroeste -- 1015.2 0.6 89
2019-10-06 17:00:00 15.1 11 Oeste 24 Oeste -- 1015.1 0.1 93
2019-10-06 16:00:00 14.1 20 Noroeste 44 Noroeste -- 1015.3 0.2 95
2019-10-06 15:00:00 16.8 12 Oeste 31 Oeste -- 1014.6 -0.1 84
2019-10-06 14:00:00 16.9 17 Oeste 33 Sudoeste -- 1015 0.3 85
2019-10-06 13:00:00 14.8 13 Oeste 45 Noroeste -- 1015.1 0.9 92
2019-10-06 12:00:00 16.9 9 Oeste 27 Oeste -- 1014.7 0.9 83
2019-10-06 11:00:00 16.5 15 Noroeste 30 Oeste -- 1014.7 1.5 84
2019-10-06 10:00:00 16.4 9 Oeste 30 Noroeste -- 1014.2 1.2 82
2019-10-06 09:00:00 16.4 8 Sudoeste 26 Oeste -- 1013.8 1 82
2019-10-06 08:00:00 16.5 12 Oeste 26 Oeste -- 1013.2 0.6 81
2019-10-06 07:00:00 16 7 Sudoeste 22 Oeste -- 1013 0 78
2019-10-06 06:00:00 14 10 Sur 15 Sur -- 1012.8 -0.6 90
2019-10-06 05:00:00 14.3 10 Sur 15 Noroeste -- 1012.6 -0.3 86
2019-10-06 04:00:00 14.6 6 Sudoeste 13 Oeste -- 1013 -0.3 81
2019-10-06 03:00:00 15.6 5 Oeste 11 Oeste -- 1013.4 0.4 80
2019-10-06 02:00:00 15.6 4 Sudoeste 13 Sudoeste -- 1012.9 -0.1 78
2019-10-06 01:00:00 16 5 Sudoeste 21 Oeste -- 1013.3 0.2 76
2019-10-06 00:00:00 15.8 7 Oeste 13 Sur -- 1013 0.1 76
2019-10-05 23:00:00 14 8 Sur 13 Sur -- 1013 0.4 92
2019-10-05 22:00:00 15.4 4 Sudoeste 9 Oeste -- 1013.1 1 89
2019-10-05 21:00:00 16 3 Oeste 9 Oeste -- 1012.9 1.4 87
2019-10-05 20:00:00 15.8 4 Oeste 12 Noroeste -- 1012.6 1.1 87
2019-10-05 19:00:00 16.9 6 Noroeste 12 Noroeste -- 1012.1 0.4 81
2019-10-05 18:00:00 17.2 0 Calma 6 Este -- 1011.5 -0.3 79
2019-10-05 17:00:00 17.4 0 Calma 8 Este -- 1011.5 -0.7 83
2019-10-05 16:00:00 17 0 Calma 13 Nordeste -- 1011.7 -0.6 88
2019-10-05 15:00:00 16.4 6 Norte 11 Norte -- 1011.8 -0.3 85
2019-10-05 14:00:00 16.4 5 Noroeste 14 Noroeste -- 1012.2 0.2 86
2019-10-05 13:00:00 16.4 8 Noroeste 12 Noroeste -- 1012.3 0.6 86
2019-10-05 12:00:00 15.9 3 Sur 9 Sur -- 1012.1 0.7 88
2019-10-05 11:00:00 15.7 0 Calma 9 Sur -- 1012 1.2 95
2019-10-05 10:00:00 14 6 Sur 10 Sur -- 1011.7 0.8 95
2019-10-05 09:00:00 13.3 3 Sudoeste 14 Sudoeste -- 1011.4 0.2 95
2019-10-05 08:00:00 12.7 8 Sur 15 Sur -- 1010.8 -0.5 95
2019-10-05 07:00:00 12.6 9 Sur 14 Sur -- 1010.9 -0.7 95
2019-10-05 06:00:00 12.9 7 Sur 10 Sudoeste -- 1011.2 -0.6 95
2019-10-05 05:00:00 13.1 4 Sudoeste 11 Sur -- 1011.3 -0.6 95
2019-10-05 04:00:00 13.4 5 Sur 13 Sur -- 1011.6 -0.8 95
2019-10-05 03:00:00 13.8 8 Sur 14 Sudoeste -- 1011.8 -0.9 94
2019-10-05 02:00:00 14.7 7 Sudoeste 16 Oeste -- 1011.9 -1 93
2019-10-05 01:00:00 14.2 12 Oeste 23 Oeste -- 1012.4 -0.1 95
2019-10-05 00:00:00 14.2 9 Sudoeste 14 Sur -- 1012.7 0.4 95
2019-10-04 23:00:00 14.5 6 Sur 11 Noroeste -- 1012.9 0.6 94
2019-10-04 22:00:00 15.3 5 Sudoeste 10 Sudoeste -- 1012.5 0.9 90
2019-10-04 21:00:00 15.3 5 Sudoeste 19 Oeste -- 1012.3 1 91
2019-10-04 20:00:00 15.3 8 Oeste 16 Noroeste -- 1012.3 0.7 89
2019-10-04 19:00:00 15.5 10 Oeste 19 Oeste -- 1011.6 -0.3 90
2019-10-04 18:00:00 15.2 9 Oeste 15 Oeste -- 1011.3 -0.8 90
2019-10-04 17:00:00 13.7 10 Oeste 25 Noroeste -- 1011.6 -0.8 96
2019-10-04 16:00:00 14.1 14 Oeste 31 Noroeste -- 1011.9 -0.6 96
2019-10-04 15:00:00 14.5 14 Noroeste 23 Oeste -- 1012.1 -0.4 96
2019-10-04 14:00:00 14.1 14 Oeste 31 Noroeste -- 1012.4 -0.2 96
2019-10-04 13:00:00 15 26 Noroeste 34 Noroeste -- 1012.5 0.6 96
2019-10-04 12:00:00 16.5 10 Oeste 29 Oeste -- 1012.5 1.1 91
2019-10-04 11:00:00 14.6 17 Oeste 39 Noroeste -- 1012.6 1.8 96
2019-10-04 10:00:00 15.9 11 Oeste 23 Noroeste -- 1011.9 1.2 95
2019-10-04 09:00:00 16.1 12 Noroeste 26 Noroeste -- 1011.4 1 94
2019-10-04 08:00:00 16.7 22 Noroeste 28 Noroeste -- 1010.8 0.1 93
2019-10-04 07:00:00 17 3 Oeste 13 Sur -- 1010.7 0 90
2019-10-04 06:00:00 16.2 6 Sur 10 Sur -- 1010.4 -0.7 90
2019-10-04 05:00:00 16.9 0 Calma -- -- -- 1010.7 -0.6 86
2019-10-04 04:00:00 16.5 0 Calma -- -- -- 1010.7 -1.1 86
2019-10-04 03:00:00 16.7 0 Calma 6 Sur -- 1011.1 -0.9 84
2019-10-04 02:00:00 16.1 0 Calma 8 Sudoeste -- 1011.3 -1 84
2019-10-04 01:00:00 15.9 0 Calma 12 Sur -- 1011.8 -0.6 82
2019-10-04 00:00:00 15.3 5 Sur 12 Sur -- 1012 0 84
2019-10-03 23:00:00 15.7 0 Calma 11 Noroeste -- 1012.3 0.4 79
2019-10-03 22:00:00 15.8 0 Calma 10 Sur -- 1012.4 0.1 79
2019-10-03 21:00:00 14.4 3 Sur 9 Sur -- 1012 -0.3 85
2019-10-03 20:00:00 15.7 6 Sur 8 Sur -- 1011.9 -0.5 79
2019-10-03 19:00:00 19.3 0 Calma 6 Norte -- 1012.3 -0.2 66
2019-10-03 18:00:00 20.6 0 Calma 6 Norte -- 1012.3 -0.4 62
2019-10-03 17:00:00 18.9 0 Calma 8 Norte -- 1012.4 -0.1 68
2019-10-03 16:00:00 18.8 3 Nordeste 10 Nordeste -- 1012.5 -0.1 70
2019-10-03 15:00:00 17.2 4 Nordeste 11 Norte -- 1012.7 0.2 76
2019-10-03 14:00:00 18.4 3 Este 13 Sudeste -- 1012.5 -0.2 76
2019-10-03 13:00:00 18.2 0 Calma 10 Nordeste -- 1012.6 -0.3 77
2019-10-03 12:00:00 17.5 5 Sudeste 17 Sudeste -- 1012.5 0 75
2019-10-03 11:00:00 15.9 11 Sur 16 Sudeste -- 1012.7 0.4 86
2019-10-03 10:00:00 14.9 9 Sur 17 Sur -- 1012.9 0.7 90
2019-10-03 09:00:00 12.4 12 Sur 18 Sur -- 1012.5 -0.1 94
2019-10-03 08:00:00 12 12 Sur 21 Sudoeste -- 1012.3 -0.3 94
2019-10-03 07:00:00 12.1 9 Sur 14 Sur -- 1012.2 -0.9 95
2019-10-03 06:00:00 13.1 8 Sur 14 Sur -- 1012.6 -1.5 95
2019-10-03 05:00:00 12.6 9 Sur 14 Sur -- 1012.6 -1.8 95
2019-10-03 04:00:00 13.2 10 Sur 15 Sur -- 1013.1 -1.7 95
2019-10-03 03:00:00 13.8 8 Sur 13 Sur -- 1014.1 -1.3 94
2019-10-03 02:00:00 14 7 Sur 14 Sur -- 1014.4 -1.4 93
2019-10-03 01:00:00 14.5 6 Sudoeste 13 Oeste -- 1014.8 -1 92
2019-10-03 00:00:00 15.8 6 Oeste 17 Oeste -- 1015.4 0.1 83
2019-10-02 23:00:00 16.1 9 Oeste 25 Oeste -- 1015.8 0.9 83
2019-10-02 22:00:00 16 14 Oeste 28 Oeste -- 1015.8 1.3 84
2019-10-02 21:00:00 16.1 14 Oeste 26 Oeste -- 1015.3 1.9 80
2019-10-02 20:00:00 16.2 14 Oeste 25 Oeste -- 1014.9 1.4 83
2019-10-02 19:00:00 16.2 11 Oeste 38 Noroeste -- 1014.5 1.4 85
2019-10-02 18:00:00 16.4 31 Noroeste 71 Noroeste -- 1013.4 0 85
2019-10-02 17:00:00 16.5 35 Noroeste 71 Noroeste -- 1013.5 0.3 85
2019-10-02 16:00:00 15.8 29 Noroeste 50 Noroeste -- 1013.1 -0.2 95
2019-10-02 15:00:00 15.6 19 Oeste 39 Oeste -- 1013.4 0.6 91
2019-10-02 14:00:00 15.1 21 Oeste 43 Oeste -- 1013.2 1.1 94
2019-10-02 13:00:00 14.9 17 Oeste 39 Oeste -- 1013.3 2.4 94
2019-10-02 12:00:00 15.4 16 Oeste 36 Noroeste -- 1012.8 2.6 92
2019-10-02 11:00:00 15.6 10 Oeste 37 Oeste -- 1012.1 2.4 92
2019-10-02 10:00:00 15.8 18 Oeste 71 Oeste -- 1010.9 1.7 89
2019-10-02 09:00:00 15.2 16 Oeste 69 Oeste -- 1010.2 1.3 92
2019-10-02 08:00:00 15.3 25 Oeste 45 Noroeste -- 1009.7 1.4 91
2019-10-02 07:00:00 15 22 Oeste 75 Noroeste -- 1009.2 0.1 90
2019-10-02 06:00:00 15.1 27 Oeste 77 Noroeste -- 1008.9 0.1 89
2019-10-02 05:00:00 14.9 55 Noroeste 77 Noroeste -- 1008.3 -0.7 95
2019-10-02 04:00:00 16 18 Oeste 57 Oeste -- 1009.1 -0.1 84
2019-10-02 03:00:00 16.7 18 Oeste 45 Oeste -- 1008.8 -0.2 80
2019-10-02 02:00:00 17.4 14 Oeste 45 Oeste -- 1009 0.1 76
2019-10-02 01:00:00 18.1 24 Noroeste 65 Noroeste -- 1009.2 0.8 71
2019-10-02 00:00:00 18.1 27 Noroeste 60 Noroeste -- 1009 1.5 72
2019-10-01 23:00:00 18 28 Noroeste 62 Noroeste -- 1008.9 1.9 79
2019-10-01 22:00:00 18 36 Noroeste 71 Noroeste -- 1008.4 1.4 84
2019-10-01 21:00:00 18.3 43 Noroeste 63 Noroeste -- 1007.5 0.2 86
2019-10-01 20:00:00 18.3 46 Noroeste 72 Noroeste -- 1007 0.2 84
2019-10-01 19:00:00 18.8 32 Noroeste 49 Noroeste -- 1007 0.2 84
2019-10-01 18:00:00 18.8 24 Noroeste 72 Noroeste -- 1007.3 0.7 79
2019-10-01 17:00:00 18.5 35 Noroeste 72 Noroeste -- 1006.8 0.1 88
2019-10-01 16:00:00 18.8 28 Noroeste 40 Noroeste -- 1006.8 -0.1 88
2019-10-01 15:00:00 18.9 34 Noroeste 70 Noroeste -- 1006.6 -0.3 88
2019-10-01 14:00:00 19.2 37 Noroeste 49 Noroeste -- 1006.7 -0.1 84
2019-10-01 13:00:00 19.1 32 Noroeste 44 Noroeste -- 1006.9 0.7 91
2019-10-01 12:00:00 19.7 22 Noroeste 35 Noroeste -- 1006.9 1.5 87
2019-10-01 11:00:00 20.1 15 Oeste 26 Noroeste -- 1006.8 2.1 80
2019-10-01 10:00:00 18.9 14 Oeste 28 Oeste -- 1006.2 2.3 88
2019-10-01 09:00:00 18.2 10 Oeste 30 Oeste -- 1005.4 1.7 89
2019-10-01 08:00:00 18.1 17 Noroeste 31 Oeste -- 1004.7 0.6 90
2019-10-01 07:00:00 17.7 14 Noroeste 24 Noroeste -- 1003.9 -0.9 89
2019-10-01 06:00:00 17 8 Oeste 17 Oeste -- 1003.7 -2.5 92
2019-10-01 05:00:00 16.3 3 Sur 16 Sur -- 1004.1 -2.4 92
2019-10-01 04:00:00 15.9 11 Sur 15 Sur -- 1004.8 -2 94
2019-10-01 03:00:00 15.8 4 Sudoeste 12 Oeste -- 1006.2 -0.9 95
2019-10-01 02:00:00 17.8 4 Sur 7 Sur -- 1006.5 -0.1 93
2019-10-01 01:00:00 18.5 4 Sur 11 Sur -- 1006.8 0.3 89
2019-10-01 00:00:00 18.9 10 Oeste 16 Oeste -- 1007.1 0.3 92
2019-09-30 23:00:00 19.8 7 Sudeste 18 Sur -- 1006.6 -0.1 78
2019-09-30 22:00:00 19.3 14 Sur 20 Sur -- 1006.5 -0.5 80
2019-09-30 21:00:00 19.3 12 Sudeste 18 Sudeste -- 1006.8 -0.5 87
2019-09-30 20:00:00 19.5 15 Sudeste 18 Sudeste -- 1006.7 -1.3 89
2019-09-30 19:00:00 21 15 Sudeste 18 Sudeste -- 1007 -1.8 82
2019-09-30 18:00:00 21.8 13 Sudeste 35 Sudeste -- 1007.3 -2.1 82
2019-09-30 17:00:00 22.1 13 Sudeste 16 Sudeste -- 1008 -2.2 81
2019-09-30 16:00:00 21.7 10 Sudeste 16 Sudeste -- 1008.8 -2.1 83
2019-09-30 15:00:00 21.4 12 Sudeste 17 Sudeste -- 1009.4 -1.8 83
2019-09-30 14:00:00 21.3 12 Sudeste 17 Sudeste -- 1010.2 -1.1 82
2019-09-30 13:00:00 21.1 9 Sudeste 17 Sudeste -- 1010.9 -0.3 80
2019-09-30 12:00:00 20.1 8 Sudeste 13 Sudeste -- 1011.2 0.5 85
2019-09-30 11:00:00 20.6 4 Sudeste 11 Sudeste -- 1011.3 0.8 83
2019-09-30 10:00:00 19.3 8 Sur 16 Sur -- 1011.2 0.5 88
2019-09-30 09:00:00 17.9 11 Sur 20 Sur -- 1010.7 -0.1 91
2019-09-30 08:00:00 16.7 14 Sur 19 Sur -- 1010.5 -0.5 94
2019-09-30 07:00:00 17.4 7 Sur 12 Sur -- 1010.7 -0.6 93
2019-09-30 06:00:00 17.2 6 Sur 13 Sur -- 1010.8 -1.1 93
2019-09-30 05:00:00 17.8 8 Sur 10 Sur -- 1011 -1 92
2019-09-30 04:00:00 18 0 Calma 11 Noroeste -- 1011.3 -1 92
2019-09-30 03:00:00 18.2 10 Noroeste 17 Noroeste -- 1011.9 -0.5 92
2019-09-30 02:00:00 18.2 8 Oeste 21 Noroeste -- 1012 -0.2 92
2019-09-30 01:00:00 18.2 4 Sur 15 Noroeste -- 1012.3 0.4 92
2019-09-30 00:00:00 18.2 9 Oeste 23 Noroeste -- 1012.4 1.4 94
2019-09-29 23:00:00 18.5 15 Noroeste 22 Noroeste -- 1012.2 1.8 94
2019-09-29 22:00:00 20 14 Noroeste 19 Noroeste -- 1011.9 1.8 82
2019-09-29 21:00:00 20.1 0 Calma 8 Oeste -- 1011 1.3 74
2019-09-29 20:00:00 21.3 0 Calma 8 Sudeste -- 1010.4 0.9 63
2019-09-29 19:00:00 23.1 6 Sudeste 8 Sudeste -- 1010.1 0.9 62
2019-09-29 18:00:00 22.6 0 Calma 14 Oeste -- 1009.7 0.6 66
2019-09-29 17:00:00 22.1 0 Calma 12 Sudeste -- 1009.5 0 71
2019-09-29 16:00:00 23.1 0 Calma 9 Sudeste -- 1009.2 0.1 69
2019-09-29 15:00:00 22.3 4 Este 10 Sudeste -- 1009.1 0.5 73
2019-09-29 14:00:00 20.3 2 Nordeste 10 Oeste -- 1009.5 0.8 81
2019-09-29 13:00:00 18.4 2 Noroeste 9 Oeste -- 1009.1 1.3 81
2019-09-29 12:00:00 19.9 0 Calma 14 Oeste -- 1008.6 1 84
2019-09-29 11:00:00 17.3 8 Noroeste 12 Noroeste -- 1008.7 1.5 93
2019-09-29 10:00:00 16.9 6 Noroeste 13 Oeste -- 1007.8 0.9 92
2019-09-29 09:00:00 16.5 8 Noroeste 21 Oeste -- 1007.6 0.2 91
2019-09-29 08:00:00 16.2 13 Noroeste 19 Noroeste -- 1007.2 -0.3 84
2019-09-29 07:00:00 15.1 2 Sudoeste 18 Sur -- 1006.9 -1.1 92
2019-09-29 06:00:00 13.5 2 Sudoeste 14 Sudoeste -- 1007.4 -1 95
2019-09-29 05:00:00 14.3 8 Sudoeste 17 Sur -- 1007.5 -1.5 96
2019-09-29 04:00:00 13.7 7 Sur 11 Sur -- 1008 -1.1 95
2019-09-29 03:00:00 14.4 4 Sudoeste 15 Sur -- 1008.4 -1.6 95
2019-09-29 02:00:00 15.1 5 Sudoeste 15 Sur -- 1009 -1.5 95
2019-09-29 01:00:00 14.6 5 Sur 18 Sur -- 1009.1 -1.5 95
2019-09-29 00:00:00 15.4 6 Sur 10 Sur -- 1010 -0.6 94
2019-09-28 23:00:00 16.1 6 Sur 12 Sur -- 1010.5 -0.4 93
2019-09-28 22:00:00 16.4 10 Sur 15 Sur -- 1010.6 -0.6 92
2019-09-28 21:00:00 16.6 13 Sur 16 Sur -- 1010.6 -0.7 91
2019-09-28 20:00:00 18.4 5 Sudeste 13 Sudeste -- 1010.9 -1 84
2019-09-28 19:00:00 19.9 6 Sudeste 16 Sudeste -- 1011.2 -1.7 78
2019-09-28 18:00:00 20.4 6 Sudeste 18 Este -- 1011.3 -2.3 78
2019-09-28 17:00:00 20.4 8 Sudeste 18 Sudeste -- 1011.9 -2.7 79
2019-09-28 16:00:00 21.2 5 Sudeste 18 Este -- 1012.9 -2.2 75
2019-09-28 15:00:00 20.6 3 Este 14 Sudeste -- 1013.6 -1.7 79
2019-09-28 14:00:00 19.3 2 Este 12 Este -- 1014.6 -0.8 80
2019-09-28 13:00:00 19.9 2 Este 13 Este -- 1015.1 -0.1 77
2019-09-28 12:00:00 18.7 0 Calma 9 Nordeste -- 1015.3 0.4 80
2019-09-28 11:00:00 18.6 4 Sudeste 9 Sur -- 1015.4 0.8 81
2019-09-28 10:00:00 17.3 5 Sur 15 Sur -- 1015.2 0.2 85
2019-09-28 09:00:00 17.3 11 Sur 18 Sur -- 1014.9 -0.2 85
2019-09-28 08:00:00 16.4 13 Sur 17 Sudoeste -- 1014.6 -0.6 89
2019-09-28 07:00:00 16.7 6 Noroeste 15 Noroeste -- 1015 -0.4 88
2019-09-28 06:00:00 16.1 5 Sur 15 Sudoeste -- 1015.1 -0.3 89
2019-09-28 05:00:00 15.8 10 Sudoeste 29 Noroeste -- 1015.2 0 91
2019-09-28 04:00:00 16.6 22 Noroeste 30 Noroeste -- 1015.4 0.2 92
2019-09-28 03:00:00 17.4 12 Noroeste 18 Noroeste -- 1015.4 0 84
2019-09-28 02:00:00 17.4 5 Oeste 23 Oeste -- 1015.2 0 79
2019-09-28 01:00:00 17.3 10 Oeste 28 Oeste -- 1015.2 0.1 80
2019-09-28 00:00:00 17.1 12 Oeste 28 Noroeste -- 1015.4 1.1 81
2019-09-27 23:00:00 17.4 5 Sudoeste 31 Noroeste -- 1015.2 1.8 81
2019-09-27 22:00:00 16.8 17 Oeste 39 Noroeste -- 1015.1 2 87
2019-09-27 21:00:00 16.4 38 Noroeste 49 Noroeste -- 1014.3 1.5 95
2019-09-27 20:00:00 18.5 26 Noroeste 33 Oeste -- 1013.4 0.9 89
2019-09-27 19:00:00 18.5 21 Noroeste 31 Noroeste -- 1013.1 0.7 87
2019-09-27 18:00:00 19.7 14 Noroeste 19 Noroeste -- 1012.8 0.3 87
2019-09-27 17:00:00 20.8 2 Norte 12 Noroeste -- 1012.5 -0.3 84
2019-09-27 16:00:00 18.6 11 Noroeste 21 Noroeste -- 1012.4 -0.3 90
2019-09-27 15:00:00 18.9 18 Noroeste 29 Noroeste -- 1012.5 -0.1 90
2019-09-27 14:00:00 18.4 22 Noroeste 37 Noroeste -- 1012.8 0.4 92
2019-09-27 13:00:00 17.2 32 Noroeste 50 Noroeste -- 1012.7 0.8 94
2019-09-27 12:00:00 19.2 35 Noroeste 44 Oeste -- 1012.6 1 80
2019-09-27 11:00:00 20.7 0 Calma 11 Sur -- 1012.4 0.8 73
2019-09-27 10:00:00 18.5 7 Sur 19 Sur -- 1011.9 0.5 80
2019-09-27 09:00:00 16.9 12 Sur 17 Sur -- 1011.6 0 83
2019-09-27 08:00:00 15.2 11 Sur 16 Sur -- 1011.6 -0.2 90
2019-09-27 07:00:00 15.5 12 Sur 19 Sur -- 1011.4 -0.5 88
2019-09-27 06:00:00 14.7 9 Sudoeste 15 Sur -- 1011.6 -0.5 91
2019-09-27 05:00:00 15.2 9 Sur 15 Sur -- 1011.8 -0.7 89
2019-09-27 04:00:00 15 6 Sudoeste 15 Sur -- 1011.9 -0.4 92
2019-09-27 03:00:00 16.5 11 Sur 16 Sur -- 1012.1 -0.3 90
2019-09-27 02:00:00 16 7 Sur 12 Sur -- 1012.5 0.5 92
2019-09-27 01:00:00 16.8 0 Calma 5 Sudeste -- 1012.3 -0.2 89
2019-09-27 00:00:00 17.2 5 Sudeste 23 Sudeste -- 1012.4 -0.1 86
2019-09-26 23:00:00 18 14 Sudeste 23 Sudeste -- 1012 -0.1 84
2019-09-26 22:00:00 18.2 6 Sudeste 12 Sudeste -- 1012.5 0.6 82
2019-09-26 21:00:00 18.6 2 Nordeste 12 Nordeste -- 1012.5 0.6 80
2019-09-26 20:00:00 19.1 3 Nordeste 8 Nordeste -- 1012.1 0.2 76
2019-09-26 19:00:00 20.2 3 Norte 9 Nordeste -- 1011.9 0 72
2019-09-26 18:00:00 18.5 6 Norte 11 Norte -- 1011.9 -0.3 81
2019-09-26 17:00:00 19.1 6 Norte 10 Norte -- 1011.9 -0.7 83
2019-09-26 16:00:00 19.3 5 Norte 11 Norte -- 1011.9 -0.7 82
2019-09-26 15:00:00 18.9 8 Noroeste 14 Norte -- 1012.2 -0.5 83
2019-09-26 14:00:00 18.6 5 Sur 8 Sur -- 1012.6 0.1 82
2019-09-26 13:00:00 19 0 Calma 5 Sur -- 1012.6 0.3 83
2019-09-26 12:00:00 18.3 0 Calma 4 Sur -- 1012.7 0.7 87
2019-09-26 11:00:00 18.1 3 Sur 7 Sur -- 1012.5 0.9 82
2019-09-26 10:00:00 17 4 Sudoeste 13 Sur -- 1012.3 0.7 90
2019-09-26 09:00:00 15.1 8 Sur 14 Sur -- 1012 0.6 92
2019-09-26 08:00:00 14.9 10 Sur 15 Sur -- 1011.6 0.2 92
2019-09-26 07:00:00 14.6 6 Sudoeste 13 Sur -- 1011.6 0.1 92
2019-09-26 06:00:00 15 9 Sur 14 Sur -- 1011.4 -0.5 91
2019-09-26 05:00:00 15.3 9 Sur 14 Sur -- 1011.4 -0.6 92
2019-09-26 04:00:00 15.6 10 Sur 26 Sur -- 1011.5 -0.6 92
2019-09-26 03:00:00 16.2 7 Sudoeste 13 Sudoeste -- 1011.9 -0.1 89
2019-09-26 02:00:00 17 9 Sudoeste 14 Sudoeste -- 1012 0 86
2019-09-26 01:00:00 17 9 Sur 14 Sudoeste -- 1012.1 0.2 86
2019-09-26 00:00:00 17.8 5 Sur 11 Sur -- 1012 0.4 84
2019-09-25 23:00:00 18 6 Sudoeste 12 Sudoeste -- 1012 0.6 82
2019-09-25 22:00:00 18 0 Calma 13 Oeste -- 1011.9 0.8 83
2019-09-25 21:00:00 18.1 8 Oeste 20 Oeste -- 1011.6 0.5 83
2019-09-25 20:00:00 18 11 Oeste 34 Noroeste -- 1011.4 0.4 83
2019-09-25 19:00:00 18.3 26 Noroeste 32 Noroeste -- 1011.1 0.2 84
2019-09-25 18:00:00 18.4 21 Noroeste 38 Noroeste -- 1011.1 0.2 79
2019-09-25 17:00:00 18.5 35 Noroeste 47 Noroeste -- 1011 0 78
2019-09-25 16:00:00 18.5 39 Noroeste 71 Noroeste -- 1010.9 -0.7 79
2019-09-25 15:00:00 18.5 39 Noroeste 53 Noroeste -- 1010.9 -1 76
2019-09-25 14:00:00 18.4 36 Noroeste 48 Oeste -- 1011 -0.8 76
2019-09-25 13:00:00 18.4 26 Noroeste 34 Noroeste -- 1011.6 0.1 74
2019-09-25 12:00:00 18.3 16 Oeste 35 Noroeste -- 1011.9 0.9 69
2019-09-25 11:00:00 18 12 Oeste 27 Oeste -- 1011.8 1.1 71
2019-09-25 10:00:00 17.4 15 Oeste 36 Oeste -- 1011.5 1.1 71
2019-09-25 09:00:00 17.2 14 Oeste 41 Noroeste -- 1011 0.8 70
2019-09-25 08:00:00 16.8 14 Oeste 42 Oeste -- 1010.7 0.7 72
2019-09-25 07:00:00 16.9 15 Oeste 34 Oeste -- 1010.4 0 74
2019-09-25 06:00:00 16.8 10 Sudoeste 28 Oeste -- 1010.2 -0.6 78
2019-09-25 05:00:00 17.2 8 Sudoeste 30 Oeste -- 1010 -0.7 78
2019-09-25 04:00:00 16.7 8 Sudoeste 28 Oeste -- 1010.4 -0.2 83
2019-09-25 03:00:00 16.9 15 Oeste 33 Sudoeste -- 1010.8 -0.1 82
2019-09-25 02:00:00 17.1 12 Oeste 35 Sudoeste -- 1010.7 -0.2 80
2019-09-25 01:00:00 17 13 Sudoeste 33 Noroeste -- 1010.6 -0.2 82
2019-09-25 00:00:00 17.2 12 Sudoeste 34 Oeste -- 1010.9 0.6 81
2019-09-24 23:00:00 17.1 10 Oeste 26 Oeste -- 1010.9 0.9 84
2019-09-24 22:00:00 17.3 6 Sudoeste 23 Oeste -- 1010.8 1.1 86
2019-09-24 21:00:00 18.4 8 Oeste 20 Oeste -- 1010.3 1 78
2019-09-24 20:00:00 18.4 11 Oeste 28 Oeste -- 1010 0.9 81
2019-09-24 19:00:00 18.7 18 Noroeste 31 Noroeste -- 1009.7 0.5 78
2019-09-24 18:00:00 19 17 Noroeste 31 Noroeste -- 1009.3 0.4 77
2019-09-24 17:00:00 18.9 28 Noroeste 34 Noroeste -- 1009.1 0.9 81
2019-09-24 16:00:00 19.4 25 Noroeste 55 Noroeste -- 1009.2 0.7 74
2019-09-24 15:00:00 18.9 43 Noroeste 71 Noroeste -- 1008.9 0.9 77
2019-09-24 14:00:00 18.6 46 Noroeste 62 Noroeste -- 1008.2 0.2 93
2019-09-24 13:00:00 19.8 16 Oeste 23 Oeste -- 1008.5 1 88
2019-09-24 12:00:00 19.9 8 Noroeste 16 Noroeste -- 1008 0.6 87
2019-09-24 11:00:00 19.5 12 Oeste 21 Noroeste -- 1008 1.4 84
2019-09-24 10:00:00 19.4 17 Noroeste 25 Noroeste -- 1007.5 2.6 83
2019-09-24 09:00:00 20 23 Noroeste 34 Noroeste -- 1007.4 3.4 72
2019-09-24 08:00:00 22.6 9 Sudoeste 39 Sur -- 1006.6 2.4 46
2019-09-24 07:00:00 23.6 17 Sudoeste 51 Sur -- 1004.9 0.5 43
2019-09-24 06:00:00 23.2 12 Sur 39 Sudeste -- 1004 -1.9 45
2019-09-24 05:00:00 22.7 10 Sudeste 34 Sudeste -- 1004.2 -2.9 48
2019-09-24 04:00:00 20.3 5 Este 22 Este -- 1004.4 -3.9 63
2019-09-24 03:00:00 18.5 13 Sur 26 Sudeste -- 1005.9 -3.9 71
2019-09-24 02:00:00 18.1 14 Sur 21 Sur -- 1007.1 -2.6 76
2019-09-24 01:00:00 18.3 14 Sur 18 Sur -- 1008.3 -1.3 77
2019-09-24 00:00:00 18.5 4 Oeste 15 Sur -- 1009.8 -0.3 79
2019-09-23 23:00:00 17.6 10 Sur 15 Sur -- 1009.7 0.1 85
2019-09-23 22:00:00 18 12 Sur 17 Sur -- 1009.6 -0.1 89
2019-09-23 21:00:00 18.1 4 Sur 9 Sudeste -- 1010.1 0.3 89
2019-09-23 20:00:00 19.3 3 Sudeste 13 Sudeste -- 1009.6 -0.1 84
2019-09-23 19:00:00 19.6 10 Sudeste 17 Sudeste -- 1009.7 -0.2 82
2019-09-23 18:00:00 20.3 7 Sudeste 12 Sudeste -- 1009.8 -0.3 85
2019-09-23 17:00:00 20.6 4 Sudeste 10 Sudeste -- 1009.7 -0.4 79
2019-09-23 16:00:00 20.5 2 Este 11 Nordeste -- 1009.9 -0.7 80
2019-09-23 15:00:00 21.2 0 Calma 12 Este -- 1010.1 -1.1 75
2019-09-23 14:00:00 21.6 0 Calma 9 Este -- 1010.1 -1.5 71
2019-09-23 13:00:00 19.9 0 Calma 9 Este -- 1010.6 -0.8 72
2019-09-23 12:00:00 19.7 2 Sudeste 9 Sudeste -- 1011.2 0.2 74
2019-09-23 11:00:00 18.1 0 Calma 3 Sur -- 1011.6 0.5 76
2019-09-23 10:00:00 17.4 2 Sur 22 Sur -- 1011.4 0.4 80
2019-09-23 09:00:00 17.4 14 Sur 24 Sur -- 1011 0.1 75
2019-09-23 08:00:00 14.7 13 Sur 20 Sur -- 1011.1 0.1 86
2019-09-23 07:00:00 15.3 12 Sur 19 Sur -- 1011 0.3 84
2019-09-23 06:00:00 15.3 12 Sur 18 Sur -- 1010.9 0 86
2019-09-23 05:00:00 15.4 12 Sur 18 Sur -- 1011 -0.1 87
2019-09-23 04:00:00 15.3 12 Sur 19 Sur -- 1010.7 -0.3 87
2019-09-23 03:00:00 15.4 12 Sur 18 Sur -- 1010.9 -0.1 88
2019-09-23 02:00:00 15.7 10 Sur 15 Sur -- 1011.1 0.1 88
2019-09-23 01:00:00 15.7 8 Sur 13 Sur -- 1011 0.4 87
2019-09-23 00:00:00 16 8 Sur 14 Sur -- 1011 1.3 87
2019-09-22 23:00:00 16.1 9 Sur 13 Sur -- 1011 1.8 88
2019-09-22 22:00:00 16.2 8 Sur 12 Sur -- 1010.6 1.6 86
2019-09-22 21:00:00 16.8 4 Sudoeste 15 Oeste -- 1009.7 1.1 82
2019-09-22 20:00:00 17.9 7 Oeste 32 Noroeste -- 1009.2 1.3 77
2019-09-22 19:00:00 18.8 24 Noroeste 34 Noroeste -- 1009 1.4 75
2019-09-22 18:00:00 19.8 19 Noroeste 26 Noroeste -- 1008.6 1.6 68
2019-09-22 17:00:00 19.7 19 Noroeste 30 Noroeste -- 1007.9 1 72
2019-09-22 16:00:00 19.9 21 Noroeste 27 Noroeste -- 1007.6 0.9 69
2019-09-22 15:00:00 19.3 21 Noroeste 25 Noroeste -- 1007 0.8 77
2019-09-22 14:00:00 19.3 14 Noroeste 25 Noroeste -- 1006.9 1 74
2019-09-22 13:00:00 19.2 10 Noroeste 24 Noroeste -- 1006.7 1.4 70
2019-09-22 12:00:00 19 6 Noroeste 17 Sur -- 1006.2 1.8 72
2019-09-22 11:00:00 17 13 Sur 18 Sur -- 1005.9 1.8 90
2019-09-22 10:00:00 15.8 9 Sur 19 Sur -- 1005.3 1.9 95
2019-09-22 09:00:00 12.4 17 Sur 22 Sur -- 1004.4 2.1 96
2019-09-22 08:00:00 12.9 6 Sur 19 Oeste -- 1004.1 1.4 96
2019-09-22 07:00:00 13 9 Oeste 71 Noroeste -- 1003.4 1.7 96
2019-09-22 06:00:00 14.9 30 Noroeste 71 Noroeste -- 1002.3 1 96
2019-09-22 05:00:00 15.9 18 Oeste 46 Oeste -- 1002.7 2.3 94
2019-09-22 04:00:00 17.1 33 Noroeste 71 Noroeste -- 1001.7 2.8 91
2019-09-22 03:00:00 17.6 36 Noroeste 69 Norte -- 1001.3 3.1 90
2019-09-22 02:00:00 22.9 11 Oeste 38 Sur -- 1000.4 1.9 63
2019-09-22 01:00:00 24.6 22 Sur 58 Sudeste -- 998.9 0.2 53
2019-09-22 00:00:00 24.6 24 Sudeste 50 Sudeste -- 998.2 -0.5 54
2019-09-21 23:00:00 24.5 16 Sur 41 Sur -- 998.5 -0.4 54
2019-09-21 22:00:00 24.8 23 Sur 64 Sur -- 998.7 -0.3 52
2019-09-21 21:00:00 25 26 Sur 50 Sur -- 998.7 -0.6 52
2019-09-21 20:00:00 25.3 19 Sur 40 Sudeste -- 998.9 -1.1 51
2019-09-21 19:00:00 25.6 11 Sudeste 35 Sur -- 999 -1.4 54
2019-09-21 18:00:00 26.2 19 Sur 32 Sur -- 999.3 -1.6 54
2019-09-21 17:00:00 27.1 12 Sur 26 Sudeste -- 1000 -1.6 47
2019-09-21 16:00:00 26.6 12 Sur 27 Sudeste -- 1000.4 -1.8 49
2019-09-21 15:00:00 27.7 17 Sudeste 38 Sudeste -- 1000.9 -1.6 48
2019-09-21 14:00:00 28 22 Sur 43 Sudeste -- 1001.6 -1.1 48
2019-09-21 13:00:00 26 14 Sur 47 Sur -- 1002.2 -0.6 53
2019-09-21 12:00:00 26.5 22 Sur 38 Sudeste -- 1002.5 -0.1 54
2019-09-21 11:00:00 24.2 14 Sudeste 36 Sudeste -- 1002.7 0.2 62
2019-09-21 10:00:00 23.1 15 Sudeste 32 Sudeste -- 1002.8 1.1 65
2019-09-21 09:00:00 22.3 15 Sudeste 36 Sudeste -- 1002.6 0.5 68
2019-09-21 08:00:00 21.6 16 Sur 43 Sur -- 1002.5 0.2 67
2019-09-21 07:00:00 21.7 24 Sur 49 Sur -- 1001.7 -1.3 66
2019-09-21 06:00:00 21.1 23 Sur 44 Sur -- 1002.1 -1.1 70
2019-09-21 05:00:00 21.1 23 Sudeste 52 Sudeste -- 1002.3 -1 70
2019-09-21 04:00:00 22 14 Sudeste 70 Sur -- 1003 -0.3 65
2019-09-21 03:00:00 22.5 26 Sur 45 Sudeste -- 1003.2 -1.3 60
2019-09-21 02:00:00 22.6 13 Sudeste 38 Sudeste -- 1003.3 -1.7 60
2019-09-21 01:00:00 22.7 17 Sudeste 49 Sudeste -- 1003.3 -1.4 59
2019-09-21 00:00:00 23.4 19 Sudeste 39 Sudeste -- 1004.5 -0.1 58
2019-09-20 23:00:00 24.2 19 Sur 71 Sur -- 1005 1.4 53
2019-09-20 22:00:00 24.7 6 Sur 28 Oeste -- 1004.7 1 52
2019-09-20 21:00:00 25.4 13 Oeste 33 Oeste -- 1004.6 0.8 53
2019-09-20 20:00:00 26.1 15 Sur 28 Sudeste -- 1003.6 -- 53
2019-09-20 19:00:00 27.5 18 Sudeste 25 Sudeste -- 1003.7 -0.9 47
2019-09-20 18:00:00 28.8 15 Sudeste 34 Sudeste -- 1003.8 -1.2 44
2019-09-20 17:00:00 -- 26 Sur 39 Sudeste -- -- -- --
2019-09-20 16:00:00 30.3 17 Sudeste 41 Sur -- 1004.6 -1.6 41
2019-09-20 15:00:00 29.2 20 Sudeste 45 Sur -- 1005 -1.9 44
2019-09-20 14:00:00 28.1 26 Sudeste 45 Sudeste -- 1005.7 -1.7 45
2019-09-20 13:00:00 26.4 17 Sudeste 37 Sur -- 1006.2 -1.3 50
2019-09-20 12:00:00 21.5 9 Sudeste 19 Sudeste -- 1006.9 -0.5 78
2019-09-20 11:00:00 19.2 6 Sudeste 13 Sudeste -- 1007.4 0.1 89
2019-09-20 10:00:00 19.3 7 Sudeste 11 Sudeste -- 1007.5 0 91
2019-09-20 09:00:00 16.7 8 Sudeste 16 Sudeste -- 1007.4 -0.5 93
2019-09-20 08:00:00 16.2 12 Sur 20 Sudeste -- 1007.3 -1 93
2019-09-20 07:00:00 16.3 13 Sudeste 18 Sudeste -- 1007.5 -1.2 92
2019-09-20 06:00:00 16.2 13 Sur 17 Sur -- 1007.9 -1.4 92
2019-09-20 05:00:00 16 11 Sudeste 15 Sur -- 1008.3 -1.4 91
2019-09-20 04:00:00 16 10 Sur 16 Sur -- 1008.7 -1.4 91
2019-09-20 03:00:00 15 9 Sur 13 Sur -- 1009.3 -1.4 93
2019-09-20 02:00:00 15.3 8 Sur 10 Sur -- 1009.7 -1.4 93
2019-09-20 01:00:00 15.5 3 Sur 7 Sur -- 1010.1 -0.8 92
2019-09-20 00:00:00 15.9 0 Calma 7 Sur -- 1010.7 0.1 91
2019-09-19 23:00:00 16.4 5 Sur 8 Sur -- 1011.1 0.6 90
2019-09-19 22:00:00 16.2 4 Sur 8 Sur -- 1010.9 0.1 88
2019-09-19 21:00:00 17.2 3 Sur 8 Sudeste -- 1010.6 0 84
2019-09-19 20:00:00 18.6 5 Sudeste 9 Sudeste -- 1010.5 -0.4 76
2019-09-19 19:00:00 19.7 2 Nordeste 11 Nordeste -- 1010.8 -0.3 73
2019-09-19 18:00:00 19.1 6 Norte 13 Noroeste -- 1010.6 -0.9 75
2019-09-19 17:00:00 20.9 10 Noroeste 21 Noroeste -- 1010.9 -0.8 71
2019-09-19 16:00:00 19.6 17 Noroeste 23 Noroeste -- 1011.1 -0.9 76
2019-09-19 15:00:00 18.6 19 Noroeste 29 Noroeste -- 1011.5 -0.7 83
2019-09-19 14:00:00 18.7 26 Noroeste 35 Noroeste -- 1011.7 -0.6 88
2019-09-19 13:00:00 18.6 24 Noroeste 31 Noroeste -- 1012 0 89
2019-09-19 12:00:00 18.7 17 Noroeste 21 Noroeste -- 1012.2 0.6 87
2019-09-19 11:00:00 18.5 10 Noroeste 18 Oeste -- 1012.3 0.8 86
2019-09-19 10:00:00 18.3 7 Oeste 18 Oeste -- 1012 0.7 87
2019-09-19 09:00:00 16.5 6 Sur 13 Sur -- 1011.6 0.5 91
2019-09-19 08:00:00 16.3 2 Oeste 9 Noroeste -- 1011.5 0.3 92
2019-09-19 07:00:00 15.2 0 Calma 4 Sur -- 1011.3 -0.5 91
2019-09-19 06:00:00 16.3 0 Calma 9 Sur -- 1011.1 -0.9 88
2019-09-19 05:00:00 16 0 Calma 12 Sudoeste -- 1011.2 -0.8 91
2019-09-19 04:00:00 15 3 Sur 8 Sur -- 1011.8 -0.3 93
2019-09-19 03:00:00 16.4 0 Calma 5 Noroeste -- 1012 -0.3 93
2019-09-19 02:00:00 15.6 4 Noroeste 6 Noroeste -- 1012 -0.1 93
2019-09-19 01:00:00 16.4 0 Calma 15 Oeste -- 1012.1 0.1 92
2019-09-19 00:00:00 17.3 5 Oeste 14 Oeste -- 1012.3 1 93
2019-09-18 23:00:00 17.3 7 Oeste 15 Oeste -- 1012.1 1 92
2019-09-18 22:00:00 17.2 0 Calma 16 Oeste -- 1012 0.8 92
2019-09-18 21:00:00 17.4 8 Oeste 18 Noroeste -- 1011.3 0.5 92
2019-09-18 20:00:00 17.9 13 Noroeste 17 Noroeste -- 1011.1 0.7 92
2019-09-18 19:00:00 18.2 14 Noroeste 21 Noroeste -- 1011.2 0.4 91
2019-09-18 18:00:00 18.4 20 Noroeste 32 Noroeste -- 1010.8 -0.1 92
2019-09-18 17:00:00 18.7 24 Noroeste 32 Noroeste -- 1010.4 -0.3 92
2019-09-18 16:00:00 18.5 21 Noroeste 28 Noroeste -- 1010.8 0.4 92
2019-09-18 15:00:00 18.7 24 Noroeste 36 Noroeste -- 1010.9 0.5 94
2019-09-18 14:00:00 20 14 Noroeste 23 Noroeste -- 1010.7 0.3 89
2019-09-18 13:00:00 20.3 3 Noroeste 29 Noroeste -- 1010.4 0.3 87
2019-09-18 12:00:00 19.1 10 Noroeste 24 Norte -- 1010.4 1.3 90
2019-09-18 11:00:00 19.2 5 Sudoeste 18 Sur -- 1010.4 1.6 89
2019-09-18 10:00:00 19 7 Sur 12 Sur -- 1010.1 1.4 89
2019-09-18 09:00:00 17.8 6 Sur 15 Sur -- 1009.1 0.6 93
2019-09-18 08:00:00 17.3 6 Sur 15 Sur -- 1008.8 -0.1 94
2019-09-18 07:00:00 17.5 4 Sur 12 Sur -- 1008.7 -0.8 93
2019-09-18 06:00:00 18.3 8 Oeste 23 Noroeste -- 1008.5 -0.7 91
2019-09-18 05:00:00 18.4 14 Noroeste 23 Noroeste -- 1008.9 -0.2 91
2019-09-18 04:00:00 17.6 6 Oeste 10 Sur -- 1009.5 0.1 93
2019-09-18 03:00:00 16.9 0 Calma 7 Sur -- 1009.2 -0.5 93
2019-09-18 02:00:00 16.5 0 Calma 8 Norte -- 1009.1 -0.3 93
2019-09-18 01:00:00 16.9 0 Calma 9 Sur -- 1009.4 -0.3 94
2019-09-18 00:00:00 17.2 0 Calma 10 Oeste -- 1009.7 0.6 94
2019-09-17 23:00:00 17.9 8 Oeste 20 Oeste -- 1009.4 0.6 95
2019-09-17 22:00:00 18.3 13 Oeste 20 Noroeste -- 1009.7 0.6 95
2019-09-17 21:00:00 18.2 10 Oeste 15 Oeste -- 1009.1 -0.2 95